createdAt,value
2022-12-15T00:01:19.914Z,47.03
2022-12-15T00:03:47.150Z,40.77
2022-12-15T00:06:14.417Z,47.07
2022-12-15T00:08:41.502Z,50.10
2022-12-15T00:11:08.613Z,43.40
2022-12-15T00:13:35.739Z,46.57
2022-12-15T00:16:04.408Z,43.03
2022-12-15T00:18:31.559Z,37.83
2022-12-15T00:20:59.190Z,45.30
2022-12-15T00:23:26.368Z,40.30
2022-12-15T00:25:53.542Z,38.13
2022-12-15T00:28:20.617Z,39.77
2022-12-15T00:30:49.604Z,49.40
2022-12-15T00:33:18.559Z,43.47
2022-12-15T00:35:45.669Z,51.57
2022-12-15T00:38:13.664Z,40.40
2022-12-15T00:40:40.793Z,47.83
2022-12-15T00:43:07.981Z,44.67
2022-12-15T00:45:35.028Z,39.30
2022-12-15T00:48:02.131Z,44.90
2022-12-15T00:50:30.570Z,44.33
2022-12-15T00:52:57.702Z,41.97
2022-12-15T00:55:24.794Z,45.20
2022-12-15T00:57:53.776Z,40.07
2022-12-15T01:00:21.088Z,46.53
2022-12-15T01:02:48.399Z,43.13
2022-12-15T01:05:15.699Z,41.43
2022-12-15T01:07:44.159Z,40.50
2022-12-15T01:10:17.160Z,50.83
2022-12-15T01:12:44.511Z,47.00
2022-12-15T01:15:11.678Z,46.70
2022-12-15T01:17:38.783Z,55.40
2022-12-15T01:20:06.979Z,47.30
2022-12-15T01:22:34.056Z,47.77
2022-12-15T01:25:02.492Z,43.90
2022-12-15T01:27:29.569Z,43.70
2022-12-15T01:29:56.711Z,43.50
2022-12-15T01:32:23.883Z,58.27
2022-12-15T01:34:51.060Z,58.43
2022-12-15T01:37:18.166Z,55.33
2022-12-15T01:39:45.250Z,50.90
2022-12-15T01:42:14.454Z,65.93
2022-12-15T01:44:41.573Z,65.67
2022-12-15T01:47:09.609Z,77.07
2022-12-15T01:49:36.797Z,77.90
2022-12-15T01:52:05.278Z,102.90
2022-12-15T01:54:34.192Z,64.07
2022-12-15T01:57:03.427Z,68.60
2022-12-15T01:59:33.900Z,67.83
2022-12-15T02:02:01.195Z,125.57
2022-12-15T02:04:28.440Z,132.63
2022-12-15T02:06:55.534Z,68.33
2022-12-15T02:09:23.351Z,75.97
2022-12-15T02:11:56.777Z,95.87
2022-12-15T02:14:28.902Z,58.13
2022-12-15T02:17:05.880Z,60.60
2022-12-15T02:19:46.123Z,75.80
2022-12-15T02:22:22.978Z,96.57
2022-12-15T02:25:09.498Z,51.30
2022-12-15T02:27:52.734Z,79.10
2022-12-15T02:30:23.105Z,60.17
2022-12-15T02:32:52.940Z,58.43
2022-12-15T02:35:22.569Z,100.90
2022-12-15T02:37:50.168Z,98.23
2022-12-15T02:40:17.381Z,119.67
2022-12-15T02:42:45.704Z,142.40
2022-12-15T02:45:13.872Z,215.73
2022-12-15T02:47:43.755Z,114.37
2022-12-15T02:50:24.692Z,196.57
2022-12-15T02:52:56.584Z,132.57
2022-12-15T02:55:28.539Z,174.43
2022-12-15T02:57:58.363Z,93.83
2022-12-15T03:00:25.446Z,91.37
2022-12-15T03:02:54.910Z,94.17
2022-12-15T03:05:23.008Z,85.60
2022-12-15T03:07:50.551Z,80.17
2022-12-15T03:10:18.440Z,57.20
2022-12-15T03:12:45.558Z,107.47
2022-12-15T03:15:12.787Z,95.67
2022-12-15T03:17:39.909Z,84.93
2022-12-15T03:20:09.090Z,111.43
2022-12-15T03:22:36.709Z,81.57
2022-12-15T03:25:03.978Z,85.20
2022-12-15T03:27:31.071Z,96.37
2022-12-15T03:29:58.214Z,86.43
2022-12-15T03:32:25.303Z,85.20
2022-12-15T03:34:52.405Z,94.20
2022-12-15T03:37:20.854Z,82.67
2022-12-15T03:39:48.116Z,80.00
2022-12-15T03:42:15.250Z,70.30
2022-12-15T03:44:42.352Z,106.37
2022-12-15T03:47:09.432Z,93.60
2022-12-15T03:49:36.573Z,79.70
2022-12-15T03:52:03.671Z,99.73
2022-12-15T03:54:32.152Z,92.07
2022-12-15T03:56:59.260Z,84.60
2022-12-15T03:59:26.341Z,87.90
2022-12-15T04:01:53.610Z,62.70
2022-12-15T04:04:20.843Z,91.20
2022-12-15T04:06:47.972Z,98.60
2022-12-15T04:09:15.058Z,72.63
2022-12-15T04:11:43.546Z,88.40
2022-12-15T04:14:10.753Z,86.90
2022-12-15T04:16:37.905Z,63.17
2022-12-15T04:19:05.051Z,100.03
2022-12-15T04:21:32.166Z,100.13
2022-12-15T04:23:59.271Z,81.83
2022-12-15T04:26:26.380Z,80.60
2022-12-15T04:28:54.793Z,97.27
2022-12-15T04:31:24.332Z,96.67
2022-12-15T04:33:53.389Z,96.00
2022-12-15T04:36:20.554Z,100.90
2022-12-15T04:38:50.527Z,90.10
2022-12-15T04:41:19.666Z,80.53
2022-12-15T04:43:46.792Z,100.83
2022-12-15T04:46:15.362Z,77.13
2022-12-15T04:48:42.499Z,80.50
2022-12-15T04:51:09.585Z,82.43
2022-12-15T04:53:36.687Z,82.73
2022-12-15T04:56:04.199Z,96.60
2022-12-15T04:58:31.305Z,91.57
2022-12-15T05:00:58.761Z,62.33
2022-12-15T05:03:27.232Z,92.20
2022-12-15T05:05:55.431Z,80.47
2022-12-15T05:08:22.522Z,70.87
2022-12-15T05:10:49.669Z,76.47
2022-12-15T05:13:16.762Z,96.77
2022-12-15T05:15:43.890Z,89.33
2022-12-15T05:18:11.020Z,98.93
2022-12-15T05:20:39.671Z,72.70
2022-12-15T05:23:06.733Z,64.63
2022-12-15T05:25:33.865Z,84.17
2022-12-15T05:28:00.987Z,93.17
2022-12-15T05:30:28.125Z,76.43
2022-12-15T05:32:55.377Z,70.63
2022-12-15T05:35:22.497Z,62.70
2022-12-15T05:37:50.924Z,71.30
2022-12-15T05:40:18.017Z,60.50
2022-12-15T05:42:46.390Z,78.57
2022-12-15T05:45:17.388Z,83.03
2022-12-15T05:47:44.501Z,67.27
2022-12-15T05:50:11.644Z,73.90
2022-12-15T05:52:38.986Z,70.07
2022-12-15T05:55:07.906Z,93.17
2022-12-15T05:57:35.009Z,70.67
2022-12-15T06:00:02.225Z,63.77
2022-12-15T06:02:38.786Z,75.73
2022-12-15T06:05:06.433Z,91.00
2022-12-15T06:07:33.890Z,69.17
2022-12-15T06:10:00.992Z,71.40
2022-12-15T06:12:30.238Z,69.37
2022-12-15T06:14:57.341Z,72.50
2022-12-15T06:17:24.468Z,62.17
2022-12-15T06:19:51.543Z,62.47
2022-12-15T06:22:18.622Z,54.83
2022-12-15T06:24:45.765Z,56.93
2022-12-15T06:27:12.833Z,57.67
2022-12-15T06:29:41.260Z,48.80
2022-12-15T06:32:08.330Z,53.67
2022-12-15T06:34:35.445Z,41.03
2022-12-15T06:37:02.580Z,44.50
2022-12-15T06:39:29.691Z,45.97
2022-12-15T06:41:56.778Z,49.87
2022-12-15T06:44:23.968Z,51.20
2022-12-15T06:46:52.460Z,47.97
2022-12-15T06:49:19.645Z,45.57
2022-12-15T06:51:46.742Z,53.87
2022-12-15T06:54:13.870Z,42.30
2022-12-15T06:56:40.981Z,56.33
2022-12-15T06:59:08.526Z,42.23
2022-12-15T07:01:36.141Z,53.40
2022-12-15T07:04:04.882Z,40.30
2022-12-15T07:06:33.578Z,52.17
2022-12-15T07:09:00.731Z,53.63
2022-12-15T07:11:27.912Z,50.37
2022-12-15T07:13:55.255Z,46.90
2022-12-15T07:16:23.153Z,48.77
2022-12-15T07:18:50.658Z,50.77
2022-12-15T07:21:19.135Z,41.10
2022-12-15T07:23:54.699Z,41.63
2022-12-15T07:26:23.115Z,39.37
2022-12-15T07:28:50.244Z,46.13
2022-12-15T07:31:17.421Z,44.77
2022-12-15T07:33:44.532Z,45.27
2022-12-15T07:36:11.745Z,41.10
2022-12-15T07:38:40.281Z,43.67
2022-12-15T07:41:08.440Z,39.53
2022-12-15T07:43:36.414Z,46.53
2022-12-15T07:46:04.407Z,51.23
2022-12-15T07:48:31.576Z,49.77
2022-12-15T07:51:07.399Z,39.90
2022-12-15T07:53:36.305Z,40.30
2022-12-15T07:56:07.971Z,38.87
2022-12-15T07:58:35.971Z,59.27
2022-12-15T08:01:05.283Z,50.67
2022-12-15T08:03:33.462Z,46.73
2022-12-15T08:06:04.283Z,48.70
2022-12-15T08:08:32.278Z,54.37
2022-12-15T08:10:59.567Z,59.17
2022-12-15T08:14:00.865Z,60.17
2022-12-15T08:16:15.333Z,50.60
2022-12-15T08:18:42.505Z,61.90
2022-12-15T08:21:11.928Z,69.37
2022-12-15T08:23:39.175Z,75.27
2022-12-15T08:26:07.391Z,64.90
2022-12-15T08:28:36.179Z,54.63
2022-12-15T08:31:04.167Z,55.20
2022-12-15T08:33:31.791Z,76.43
2022-12-15T08:35:59.708Z,59.17
2022-12-15T08:38:26.784Z,53.20
2022-12-15T08:40:53.935Z,79.80
2022-12-15T08:43:21.060Z,65.50
2022-12-15T08:45:49.610Z,61.07
2022-12-15T08:48:17.492Z,58.87
2022-12-15T08:50:45.045Z,65.23
2022-12-15T08:56:02.503Z,82.57
2022-12-15T08:58:29.614Z,73.23
2022-12-15T09:01:01.518Z,63.40
2022-12-15T09:03:29.009Z,55.50
2022-12-15T09:05:56.589Z,76.77
2022-12-15T09:08:24.000Z,37.90
2022-12-15T09:10:52.311Z,52.80
2022-12-15T09:13:19.900Z,85.90
2022-12-15T09:16:09.016Z,75.40
2022-12-15T09:18:35.439Z,80.27
2022-12-15T09:21:02.996Z,71.57
2022-12-15T09:23:30.988Z,61.53
2022-12-15T09:26:00.079Z,61.70
2022-12-15T09:28:27.274Z,73.80
2022-12-15T09:30:54.493Z,72.70
2022-12-15T09:33:21.640Z,68.43
2022-12-15T09:35:52.075Z,62.70
2022-12-15T09:38:19.193Z,68.73
2022-12-15T09:40:46.375Z,75.63
2022-12-15T09:43:47.159Z,61.87
2022-12-15T09:46:09.153Z,71.93
2022-12-15T09:48:39.240Z,55.33
2022-12-15T09:51:09.196Z,81.47
2022-12-15T09:56:26.707Z,74.03
2022-12-15T09:58:56.997Z,89.97
2022-12-15T10:01:28.674Z,82.30
2022-12-15T10:03:57.926Z,81.43
2022-12-15T10:09:19.605Z,81.23
2022-12-15T10:11:50.624Z,93.00
2022-12-15T10:14:23.331Z,74.00
2022-12-15T10:16:53.564Z,87.40
2022-12-15T10:19:24.742Z,71.90
2022-12-15T10:21:53.261Z,80.13
2022-12-15T10:24:44.486Z,70.90
2022-12-15T10:27:14.996Z,74.43
2022-12-15T10:29:44.541Z,70.40
2022-12-15T10:32:19.343Z,84.73
2022-12-15T10:34:46.789Z,85.83
2022-12-15T10:37:18.772Z,80.27
2022-12-15T10:39:46.910Z,82.30
2022-12-15T10:42:19.216Z,62.13
2022-12-15T10:44:50.651Z,60.10
2022-12-15T10:47:19.923Z,73.47
2022-12-15T10:49:48.442Z,67.10
2022-12-15T10:52:19.804Z,87.47
2022-12-15T10:54:48.394Z,61.90
2022-12-15T10:57:16.970Z,81.83
2022-12-15T10:59:44.192Z,78.83
2022-12-15T11:02:28.723Z,81.33
2022-12-15T11:04:56.487Z,69.67
2022-12-15T11:07:26.393Z,82.93
2022-12-15T11:09:58.938Z,75.70
2022-12-15T11:12:27.039Z,83.37
2022-12-15T11:14:54.226Z,81.50
2022-12-15T11:17:22.390Z,93.13
2022-12-15T11:19:56.688Z,93.23
2022-12-15T11:22:35.840Z,90.37
2022-12-15T11:25:05.649Z,92.93
2022-12-15T11:27:33.972Z,89.40
2022-12-15T11:30:02.990Z,81.17
2022-12-15T11:32:33.021Z,85.40
2022-12-15T11:35:00.534Z,87.20
2022-12-15T11:37:37.594Z,87.37
2022-12-15T11:40:31.916Z,80.73
2022-12-15T11:43:09.458Z,84.63
2022-12-15T11:45:37.445Z,76.87
2022-12-15T11:48:11.313Z,72.67
2022-12-15T11:50:42.517Z,72.30
2022-12-15T11:53:24.157Z,85.67
2022-12-15T11:55:53.888Z,80.50
2022-12-15T11:58:32.489Z,84.77
2022-12-15T12:01:04.518Z,73.50
2022-12-15T12:03:34.684Z,73.80
2022-12-15T12:06:05.959Z,66.83
2022-12-15T12:08:41.641Z,77.23
2022-12-15T12:11:11.221Z,80.80
2022-12-15T12:13:43.277Z,70.20
2022-12-15T12:16:15.006Z,71.93
2022-12-15T12:18:43.673Z,78.10
2022-12-15T12:21:12.748Z,70.63
2022-12-15T12:23:43.228Z,70.80
2022-12-15T12:26:12.864Z,66.37
2022-12-15T12:28:45.628Z,84.80
2022-12-15T12:31:21.555Z,79.07
2022-12-15T12:33:49.819Z,82.87
2022-12-15T12:36:17.330Z,73.53
2022-12-15T12:38:50.875Z,70.20
2022-12-15T12:41:23.352Z,76.60
2022-12-15T12:43:53.039Z,66.67
2022-12-15T12:46:21.916Z,89.20
2022-12-15T12:48:51.653Z,82.53
2022-12-15T12:51:22.656Z,76.53
2022-12-15T12:53:51.136Z,84.47
2022-12-15T12:56:29.889Z,80.43
2022-12-15T12:58:57.079Z,80.87
2022-12-15T13:01:26.818Z,82.10
2022-12-15T13:04:05.589Z,76.17
2022-12-15T13:06:47.586Z,72.63
2022-12-15T13:09:37.645Z,67.60
2022-12-15T13:12:20.961Z,76.90
2022-12-15T13:14:54.322Z,68.30
2022-12-15T13:17:28.296Z,69.80
2022-12-15T13:20:07.006Z,75.13
2022-12-15T13:22:34.870Z,64.47
2022-12-15T13:25:03.760Z,76.17
2022-12-15T13:27:35.923Z,75.77
2022-12-15T13:30:14.142Z,74.43
2022-12-15T13:32:42.292Z,62.53
2022-12-15T13:35:23.452Z,67.13
2022-12-15T13:37:53.171Z,75.77
2022-12-15T13:40:32.326Z,69.47
2022-12-15T13:42:59.833Z,81.93
2022-12-15T13:45:32.625Z,63.80
2022-12-15T13:48:00.051Z,64.17
2022-12-15T13:50:30.736Z,65.83
2022-12-15T13:55:52.839Z,69.80
2022-12-15T13:58:20.951Z,78.37
2022-12-15T14:00:48.994Z,69.27
2022-12-15T14:03:16.214Z,83.10
2022-12-15T14:05:48.275Z,70.50
2022-12-15T14:08:18.891Z,76.67
2022-12-15T14:10:49.034Z,75.67
2022-12-15T14:13:20.408Z,74.23
2022-12-15T14:15:50.913Z,74.37
2022-12-15T14:18:26.244Z,73.60
2022-12-15T14:20:53.360Z,74.20
2022-12-15T14:23:20.666Z,70.03
2022-12-15T14:25:54.986Z,76.57
2022-12-15T14:28:26.373Z,68.93
2022-12-15T14:30:53.646Z,82.53
2022-12-15T14:33:24.067Z,69.87
2022-12-15T14:35:56.652Z,73.73
2022-12-15T14:38:25.131Z,71.90
2022-12-15T14:40:53.607Z,64.50
2022-12-15T14:43:21.645Z,74.83
2022-12-15T14:45:52.411Z,68.00
2022-12-15T14:48:42.795Z,58.67
2022-12-15T14:51:10.336Z,78.13
2022-12-15T14:53:39.036Z,76.30
2022-12-15T14:56:29.389Z,71.23
2022-12-15T14:58:58.980Z,67.43
2022-12-15T15:01:28.335Z,75.67
2022-12-15T15:03:09.322Z,76.40
2022-12-15T15:03:59.206Z,73.40
2022-12-15T15:06:30.027Z,72.80
2022-12-15T15:08:57.263Z,65.80
2022-12-15T15:11:25.910Z,73.67
2022-12-15T15:13:56.157Z,68.80
2022-12-15T15:16:23.705Z,65.57
2022-12-15T15:18:53.774Z,74.33
2022-12-15T15:21:22.419Z,58.63
2022-12-15T15:23:59.825Z,77.37
2022-12-15T15:26:27.602Z,74.50
2022-12-15T15:28:55.210Z,76.10
2022-12-15T15:31:33.942Z,71.13
2022-12-15T15:34:06.973Z,72.93
2022-12-15T15:36:35.424Z,78.93
2022-12-15T15:39:02.731Z,73.07
2022-12-15T15:41:30.601Z,75.37
2022-12-15T15:43:58.303Z,81.47
2022-12-15T15:46:26.858Z,81.40
2022-12-15T15:48:56.086Z,74.90
2022-12-15T15:51:26.121Z,71.97
2022-12-15T15:53:53.886Z,81.33
2022-12-15T15:56:21.505Z,69.47
2022-12-15T15:58:48.596Z,79.00
2022-12-15T16:01:15.868Z,78.03
2022-12-15T16:03:43.035Z,90.30
2022-12-15T16:06:14.791Z,82.73
2022-12-15T16:08:43.757Z,81.57
2022-12-15T16:11:11.599Z,76.93
2022-12-15T16:13:38.792Z,81.00
2022-12-15T16:16:06.196Z,68.93
2022-12-15T16:18:33.707Z,66.17
2022-12-15T16:21:01.191Z,68.23
2022-12-15T16:23:29.387Z,72.90
2022-12-15T16:25:58.831Z,63.27
2022-12-15T16:28:26.769Z,72.80
2022-12-15T16:30:53.947Z,71.70
2022-12-15T16:33:21.372Z,72.80
2022-12-15T16:35:50.041Z,73.33
2022-12-15T16:38:18.938Z,71.40
2022-12-15T16:40:46.096Z,81.10
2022-12-15T16:43:16.222Z,75.07
2022-12-15T16:45:43.782Z,75.37
2022-12-15T16:48:11.024Z,72.73
2022-12-15T16:50:38.898Z,71.23
2022-12-15T16:53:06.829Z,83.13
2022-12-15T16:55:39.651Z,79.67
2022-12-15T16:58:07.555Z,65.43
2022-12-15T17:00:36.074Z,77.37
2022-12-15T17:03:03.566Z,78.07
2022-12-15T17:05:32.194Z,80.97
2022-12-15T17:07:59.938Z,83.30
2022-12-15T17:10:29.378Z,69.23
2022-12-15T17:12:58.941Z,73.37
2022-12-15T17:15:27.460Z,78.10
2022-12-15T17:17:56.209Z,71.27
2022-12-15T17:20:29.463Z,71.47
2022-12-15T17:22:58.545Z,74.67
2022-12-15T17:25:45.943Z,74.13
2022-12-15T17:28:15.990Z,72.00
2022-12-15T17:30:43.323Z,68.93
2022-12-15T17:33:17.384Z,81.83
2022-12-15T17:35:44.557Z,63.93
2022-12-15T17:38:14.925Z,68.73
2022-12-15T17:40:42.041Z,80.93
2022-12-15T17:43:12.324Z,75.00
2022-12-15T17:45:39.441Z,88.40
2022-12-15T17:48:06.680Z,82.10
2022-12-15T17:50:35.498Z,84.30
2022-12-15T17:53:03.884Z,80.50
2022-12-15T17:55:34.946Z,84.83
2022-12-15T17:58:03.300Z,87.00
2022-12-15T18:00:31.163Z,71.53
2022-12-15T18:02:59.191Z,75.00
2022-12-15T18:05:27.321Z,96.03
2022-12-15T18:07:56.790Z,70.53
2022-12-15T18:10:26.032Z,63.13
2022-12-15T18:12:53.174Z,77.17
2022-12-15T18:15:21.201Z,75.90
2022-12-15T18:17:48.381Z,76.77
2022-12-15T18:20:15.669Z,71.67
2022-12-15T18:22:42.828Z,74.87
2022-12-15T18:25:18.973Z,72.80
2022-12-15T18:27:46.119Z,71.93
2022-12-15T18:30:17.707Z,65.23
2022-12-15T18:32:45.458Z,76.87
2022-12-15T18:35:17.497Z,71.67
2022-12-15T18:37:44.947Z,71.27
2022-12-15T18:40:14.215Z,63.73
2022-12-15T18:42:42.952Z,65.27
2022-12-15T18:45:20.278Z,82.40
2022-12-15T18:47:47.789Z,84.20
2022-12-15T18:50:15.872Z,72.33
2022-12-15T18:52:42.992Z,67.10
2022-12-15T18:55:17.672Z,91.17
2022-12-15T18:57:46.140Z,75.60
2022-12-15T19:00:18.401Z,72.87
2022-12-15T19:02:45.695Z,88.17
2022-12-15T19:05:12.853Z,82.47
2022-12-15T19:07:39.948Z,91.83
2022-12-15T19:10:07.312Z,88.13
2022-12-15T19:12:34.448Z,79.83
2022-12-15T19:15:02.885Z,77.33
2022-12-15T19:17:29.992Z,74.63
2022-12-15T19:19:57.086Z,73.20
2022-12-15T19:22:24.640Z,79.07
2022-12-15T19:24:51.783Z,74.20
2022-12-15T19:27:20.042Z,76.03
2022-12-15T19:29:47.469Z,69.20
2022-12-15T19:32:16.076Z,67.80
2022-12-15T19:34:43.196Z,70.03
2022-12-15T19:37:14.249Z,79.53
2022-12-15T19:39:41.357Z,71.07
2022-12-15T19:42:14.621Z,74.60
2022-12-15T19:44:41.739Z,66.13
2022-12-15T19:47:12.041Z,74.30
2022-12-15T19:49:40.529Z,76.87
2022-12-15T19:52:12.054Z,76.87
2022-12-15T19:54:39.202Z,70.20
2022-12-15T19:57:09.583Z,73.40
2022-12-15T19:59:36.673Z,61.73
2022-12-15T20:02:04.015Z,67.93
2022-12-15T20:04:31.294Z,65.93
2022-12-15T20:07:00.117Z,78.20
2022-12-15T20:09:27.197Z,66.43
2022-12-15T20:11:54.324Z,82.37
2022-12-15T20:14:21.430Z,65.17
2022-12-15T20:16:48.658Z,74.27
2022-12-15T20:19:15.841Z,68.70
2022-12-15T20:21:43.042Z,67.10
2022-12-15T20:24:14.548Z,62.50
2022-12-15T20:26:42.099Z,75.77
2022-12-15T20:29:17.539Z,72.70
2022-12-15T20:31:44.744Z,68.33
2022-12-15T20:34:11.839Z,71.27
2022-12-15T20:36:38.964Z,64.93
2022-12-15T20:39:11.022Z,73.77
2022-12-15T20:41:39.458Z,82.43
2022-12-15T20:44:06.664Z,72.93
2022-12-15T20:46:34.734Z,80.27
2022-12-15T20:49:01.931Z,72.67
2022-12-15T20:51:29.983Z,66.20
2022-12-15T20:53:57.928Z,63.83
2022-12-15T20:56:25.443Z,70.23
2022-12-15T20:58:54.717Z,64.27
2022-12-15T21:01:23.425Z,71.13
2022-12-15T21:03:51.970Z,74.73
2022-12-15T21:06:19.474Z,68.90
2022-12-15T21:08:46.586Z,57.67
2022-12-15T21:11:15.553Z,71.37
2022-12-15T21:13:42.958Z,82.63
2022-12-15T21:16:15.170Z,74.43
2022-12-15T21:21:33.211Z,61.70
2022-12-15T21:24:00.712Z,78.37
2022-12-15T21:26:28.426Z,64.30
2022-12-15T21:28:57.038Z,79.67
2022-12-15T21:31:26.117Z,78.73
2022-12-15T21:33:53.335Z,82.10
2022-12-15T21:36:22.325Z,84.20
2022-12-15T21:38:50.365Z,81.27
2022-12-15T21:41:19.920Z,67.50
2022-12-15T21:43:47.270Z,84.03
2022-12-15T21:46:15.468Z,71.63
2022-12-15T21:48:44.340Z,87.57
2022-12-15T21:51:15.036Z,84.30
2022-12-15T21:53:42.180Z,69.97
2022-12-15T21:56:11.398Z,81.30
2022-12-15T21:58:38.499Z,75.27
2022-12-15T22:01:05.694Z,80.47
2022-12-15T22:03:32.871Z,69.33
2022-12-15T22:06:01.298Z,74.30
2022-12-15T22:08:28.443Z,74.27
2022-12-15T22:10:55.657Z,84.73
2022-12-15T22:13:23.615Z,75.93
2022-12-15T22:15:51.127Z,74.93
2022-12-15T22:18:19.084Z,71.80
2022-12-15T22:20:46.702Z,69.60
2022-12-15T22:23:15.173Z,80.37
2022-12-15T22:25:42.496Z,86.07
2022-12-15T22:28:15.958Z,74.97
2022-12-15T22:30:43.070Z,85.87
2022-12-15T22:33:12.570Z,71.97
2022-12-15T22:35:42.204Z,73.47
2022-12-15T22:38:09.303Z,71.50
2022-12-15T22:40:37.768Z,87.37
2022-12-15T22:43:05.363Z,76.67
2022-12-15T22:45:32.486Z,73.90
2022-12-15T22:47:59.620Z,86.97
2022-12-15T22:50:27.307Z,71.90
2022-12-15T22:52:55.247Z,81.03
2022-12-15T22:55:23.462Z,86.83
2022-12-15T22:57:54.204Z,75.57
2022-12-15T23:00:21.479Z,76.77
2022-12-15T23:02:48.645Z,89.00
2022-12-15T23:05:17.063Z,81.73
2022-12-15T23:07:44.497Z,71.53
2022-12-15T23:10:12.840Z,73.80
2022-12-15T23:12:39.925Z,77.90
2022-12-15T23:15:09.170Z,78.83
2022-12-15T23:17:36.248Z,69.17
2022-12-15T23:20:03.431Z,61.20
2022-12-15T23:22:30.529Z,85.03
2022-12-15T23:24:57.607Z,86.03
2022-12-15T23:27:24.685Z,72.07
2022-12-15T23:29:51.818Z,63.57
2022-12-15T23:32:20.266Z,69.10
2022-12-15T23:34:47.379Z,92.47
2022-12-15T23:37:14.528Z,76.17
2022-12-15T23:39:41.598Z,97.00
2022-12-15T23:42:08.706Z,73.00
2022-12-15T23:44:35.832Z,68.77
2022-12-15T23:47:02.986Z,71.90
2022-12-15T23:49:31.509Z,73.23
2022-12-15T23:51:58.607Z,75.07
2022-12-15T23:54:25.715Z,86.27
2022-12-15T23:56:52.816Z,83.13
2022-12-15T23:59:21.841Z,81.77
